»·PEaware :: N630HR KAJO-KVCV

N630HR :: KAJO-KVCV

FLIGHT INFORMATION

Flight Status: Arrived
Operator: Privately registered:
United States
More flights under this callsign
Pilot: Drew L. (13237)
Aircraft: CESSNA 172 SKYHAWK
(C172)
More flights by this aircraft type
Origin: KAJO Corona Mun
United States
Destination: KVCV Socal Logistics
United States
More flights between these airports :: More routes between these airports
Route: PDZ V442 APLES
File this flight plan on PilotEdge
Remarks: I11
Altitude:
(Current/Filed)
9,000ft
Speed:
(Current/Filed)
0kts
Departed: 04-Nov-18 02:42 PM
Arrived: 04-Nov-18 03:31 PM
Distance/Time
Traveled:
43nm/0:49
Distance/Time
To Go:
Arrived

Flight Plot

Page will automatically refresh every two minutes.


Map Options




Map Legend


Flown Route
Filed Route
Departure Airport
Arrival Airport
Navaid (VOR, NDB)
Fix

Horizontal Profiles

Position Reports

Time Latitude Longitude Heading Altitude Ground
Speed
04-Nov-18 14:36 33.896772 -117.606202 267 531ft 0kts
04-Nov-18 14:37 33.896772 -117.606202 267 531ft 0kts
04-Nov-18 14:38 33.896772 -117.606202 267 531ft 0kts
04-Nov-18 14:39 33.896772 -117.606202 267 531ft 0kts
04-Nov-18 14:40 33.896772 -117.606202 267 531ft 0kts
04-Nov-18 14:41 33.897131 -117.607160 270 531ft 0kts
04-Nov-18 14:42 33.897131 -117.607160 270 531ft 0kts
04-Nov-18 14:43 33.897232 -117.607477 327 531ft 4kts
04-Nov-18 14:44 33.897596 -117.607358 91 531ft 0kts
04-Nov-18 14:45 33.900092 -117.588699 72 1071ft 75kts
04-Nov-18 14:46 33.908846 -117.562435 64 1872ft 92kts
04-Nov-18 14:47 33.918038 -117.532650 68 2678ft 97kts
04-Nov-18 14:48 33.932879 -117.513229 39 3666ft 64kts
04-Nov-18 14:49 33.948628 -117.505558 320 3969ft 95kts
04-Nov-18 14:50 33.935496 -117.524229 182 4092ft 110kts
04-Nov-18 14:51 33.916159 -117.539478 283 5049ft 62kts
04-Nov-18 14:52 33.926232 -117.545898 1 5634ft 58kts
04-Nov-18 14:53 33.943093 -117.525630 52 5966ft 109kts
04-Nov-18 14:54 33.967504 -117.502252 29 6356ft 110kts
04-Nov-18 14:55 33.990085 -117.486875 13 7133ft 82kts
04-Nov-18 14:56 34.009380 -117.476086 15 7668ft 89kts
04-Nov-18 14:57 34.034467 -117.460872 18 7879ft 111kts
04-Nov-18 14:58 34.060063 -117.445305 18 8064ft 115kts
04-Nov-18 14:59 34.085795 -117.429799 18 8246ft 115kts
04-Nov-18 15:00 34.113960 -117.412846 18 8452ft 114kts
04-Nov-18 15:01 34.139966 -117.397071 16 8955ft 91kts
04-Nov-18 15:02 34.166095 -117.381627 18 8999ft 117kts
04-Nov-18 15:03 34.195755 -117.363564 18 8998ft 121kts
04-Nov-18 15:04 34.225401 -117.345650 19 8995ft 121kts
04-Nov-18 15:05 34.254207 -117.328107 18 8999ft 112kts
04-Nov-18 15:06 34.281676 -117.311543 18 9002ft 110kts
04-Nov-18 15:07 34.309074 -117.294977 19 8992ft 109kts
04-Nov-18 15:08 34.336272 -117.278531 19 8972ft 110kts
04-Nov-18 15:09 34.363284 -117.262157 19 8977ft 108kts
04-Nov-18 15:10 34.391052 -117.245373 18 8957ft 114kts
04-Nov-18 15:11 34.419419 -117.228131 18 8958ft 114kts
04-Nov-18 15:12 34.447860 -117.210861 18 8961ft 114kts
04-Nov-18 15:13 34.476373 -117.193543 18 8965ft 114kts
04-Nov-18 15:14 34.505493 -117.175834 19 8631ft 124kts
04-Nov-18 15:15 34.537070 -117.156447 20 7827ft 128kts
04-Nov-18 15:16 34.569173 -117.145845 1 7019ft 117kts
04-Nov-18 15:17 34.601492 -117.143874 352 6218ft 117kts
04-Nov-18 15:18 34.633645 -117.148355 343 5416ft 117kts
04-Nov-18 15:19 34.662736 -117.158129 334 5198ft 105kts
04-Nov-18 15:20 34.690223 -117.172995 326 5197ft 109kts
04-Nov-18 15:21 34.715837 -117.192647 318 5197ft 108kts
04-Nov-18 15:22 34.738502 -117.216422 310 5194ft 107kts
04-Nov-18 15:23 34.757700 -117.243542 302 5191ft 104kts
04-Nov-18 15:24 34.773165 -117.272913 295 5190ft 103kts
04-Nov-18 15:25 34.785050 -117.304656 287 5191ft 102kts
04-Nov-18 15:26 34.793044 -117.337832 279 5194ft 102kts
04-Nov-18 15:27 34.792188 -117.370519 219 5198ft 102kts
04-Nov-18 15:28 34.763959 -117.375150 188 5195ft 106kts
04-Nov-18 15:29 34.731880 -117.377921 187 4546ft 120kts
04-Nov-18 15:30 34.701052 -117.380598 188 4297ft 98kts
04-Nov-18 15:31 34.672520 -117.383285 191 4232ft 100kts
04-Nov-18 15:32 34.644524 -117.386681 185 3480ft 111kts
04-Nov-18 15:33 34.615626 -117.386698 182 2839ft 80kts
04-Nov-18 15:34 34.600065 -117.386557 181 2845ft 37kts
04-Nov-18 15:35 34.593595 -117.382436 137 2860ft 23kts
04-Nov-18 15:36 34.589475 -117.377352 126 2872ft 19kts
04-Nov-18 15:37 34.589149 -117.375805 356 2872ft 0kts
04-Nov-18 15:38 34.589149 -117.375805 356 2872ft 0kts
04-Nov-18 15:39 34.589149 -117.375805 356 2872ft 0kts
04-Nov-18 15:40 34.589149 -117.375805 356 2872ft 0kts
04-Nov-18 15:41 34.589149 -117.375805 356 2872ft 0kts
04-Nov-18 15:42 34.589149 -117.375805 356 2872ft 0kts

Navigation Log

Ident Type
1. KAJO Airport
2. PDZ Navaid
3. APLES Fix
4. KVCV Airport